Time;durP1;ratioP1;P1;durP2;ratioP2;P2;SDS_P1;SDS_P2;PMS_P1;PMS_P2;Temp;Humidity;BMP_temperature;BMP_pressure;BME280_temperature;BME280_humidity;BME280_pressure;Samples;Min_cycle;Max_cycle;Signal;HPM_P1;HPM_P2
2022/08/12 00:44:52;;;;;;;5.23;3.90;;;19.60;27.60;;;;;;4993309;28;20976;-63
2022/08/12 00:47:18;;;;;;;6.40;3.63;;;19.70;28.90;;;;;;4993101;28;20447;-61
2022/08/12 00:49:45;;;;;;;5.30;3.70;;;19.90;29.20;;;;;;4993013;28;20423;-61
2022/08/12 00:52:12;;;;;;;7.33;3.23;;;19.80;29.00;;;;;;4992968;28;20522;-62
2022/08/12 00:54:38;;;;;;;6.63;3.67;;;19.70;29.90;;;;;;4992843;28;20427;-60
2022/08/12 00:57:07;;;;;;;8.83;3.97;;;19.80;31.20;;;;;;4975371;28;20787;-63
2022/08/12 00:59:35;;;;;;;3.97;3.57;;;19.70;31.00;;;;;;4997952;28;20176;-64
2022/08/12 01:02:04;;;;;;;4.00;3.60;;;19.90;31.90;;;;;;4992756;28;20507;-63
2022/08/12 01:12:48;;;;;;;6.17;3.63;;;20.00;34.80;;;;;;4992572;28;20459;-62
2022/08/12 01:15:14;;;;;;;4.20;3.60;;;20.00;35.30;;;;;;4992610;28;21014;-63
2022/08/12 01:17:43;;;;;;;13.03;4.37;;;20.00;36.70;;;;;;4992404;28;20452;-61
2022/08/12 01:20:17;;;;;;;9.00;3.93;;;20.00;36.10;;;;;;4992648;28;20410;-62
2022/08/12 01:23:10;;;;;;;7.83;5.03;;;20.00;36.90;;;;;;4992585;28;20975;-63
2022/08/12 01:25:38;;;;;;;7.80;3.90;;;20.00;37.90;;;;;;4992444;28;20872;-65
2022/08/12 01:28:05;;;;;;;4.60;4.03;;;20.00;38.30;;;;;;4992201;28;20423;-65
2022/08/12 01:30:32;;;;;;;7.10;3.80;;;20.00;39.60;;;;;;4992371;28;20447;-63
2022/08/12 01:33:01;;;;;;;4.03;3.63;;;19.90;38.90;;;;;;4992524;28;20463;-64
2022/08/12 01:35:31;;;;;;;4.00;3.60;;;19.90;39.60;;;;;;4993633;28;20959;-64
2022/08/12 01:38:01;;;;;;;4.50;4.10;;;19.90;39.50;;;;;;4993929;28;20453;-62
2022/08/12 01:40:32;;;;;;;4.83;3.97;;;19.70;39.80;;;;;;4993921;28;20427;-63
2022/08/12 01:43:12;;;;;;;11.40;4.13;;;19.60;40.00;;;;;;4992799;28;20416;-62
2022/08/12 01:45:58;;;;;;;16.67;4.10;;;19.70;41.20;;;;;;4992198;28;20503;-60
2022/08/12 01:48:52;;;;;;;6.70;3.83;;;19.60;41.50;;;;;;4992364;28;20408;-63
2022/08/12 01:51:42;;;;;;;3.90;3.60;;;19.60;42.80;;;;;;4992271;28;20844;-61
2022/08/12 01:54:17;;;;;;;5.23;4.20;;;19.50;42.60;;;;;;4991981;28;20523;-61
2022/08/12 01:57:05;;;;;;;4.27;3.90;;;19.60;44.10;;;;;;4991994;28;20407;-62
2022/08/12 01:59:48;;;;;;;8.47;3.57;;;19.70;44.40;;;;;;4992144;28;20399;-63
2022/08/12 02:02:56;;;;;;;3.80;3.43;;;19.50;44.40;;;;;;4974512;28;20423;-59
2022/08/12 02:11:57;;;;;;;4.40;4.00;;;19.60;46.80;;;;;;4992089;28;20450;-63
2022/08/12 02:14:45;;;;;;;5.00;4.20;;;19.50;46.80;;;;;;4991754;28;20448;-63
2022/08/12 02:17:31;;;;;;;4.50;3.77;;;19.60;48.00;;;;;;4991528;28;20422;-60
2022/08/12 02:20:11;;;;;;;6.73;4.37;;;19.50;47.50;;;;;;4991647;28;20455;-62
2022/08/12 02:22:40;;;;;;;11.33;5.80;;;19.20;47.70;;;;;;4992131;28;20877;-62
2022/08/12 02:25:08;;;;;;;5.10;4.07;;;19.30;49.40;;;;;;4993009;28;20435;-62
2022/08/12 02:27:46;;;;;;;5.00;4.53;;;19.30;48.80;;;;;;4991390;28;20841;-62
2022/08/12 02:30:23;;;;;;;3.97;3.67;;;19.30;48.90;;;;;;4991463;28;20475;-63
2022/08/12 02:32:51;;;;;;;8.80;4.10;;;19.40;49.80;;;;;;4991561;28;20460;-62
2022/08/12 02:35:20;;;;;;;4.83;4.33;;;19.40;50.20;;;;;;4991697;28;20447;-63
2022/08/12 02:37:48;;;;;;;5.97;4.20;;;19.40;51.40;;;;;;4991331;28;20491;-62
2022/08/12 02:40:16;;;;;;;4.80;4.00;;;19.40;52.20;;;;;;4991246;28;20455;-61
2022/08/12 02:43:16;;;;;;;4.60;4.20;;;19.50;51.80;;;;;;4991597;28;20427;-63
2022/08/12 02:46:07;;;;;;;11.27;4.73;;;19.40;52.00;;;;;;4991437;28;20488;-64
2022/08/12 02:48:59;;;;;;;4.63;4.00;;;19.30;51.70;;;;;;4991141;28;20422;-64
2022/08/12 02:51:37;;;;;;;5.23;4.43;;;19.20;51.90;;;;;;4991675;28;20411;-63
2022/08/12 02:54:06;;;;;;;4.70;4.27;;;19.20;52.30;;;;;;4973792;28;20450;-64
2022/08/12 02:56:39;;;;;;;6.50;5.20;;;19.30;52.80;;;;;;4991412;28;20893;-63
2022/08/12 02:59:06;;;;;;;5.43;4.20;;;19.30;53.00;;;;;;4991217;28;20917;-62
2022/08/12 03:01:33;;;;;;;6.40;4.03;;;19.30;52.90;;;;;;4991511;28;20483;-63
2022/08/12 03:04:01;;;;;;;4.77;4.37;;;19.10;52.50;;;;;;4991633;28;20432;-62
2022/08/12 03:06:39;;;;;;;6.70;4.93;;;19.10;53.60;;;;;;4994647;28;20915;-61
2022/08/12 03:09:09;;;;;;;6.13;4.17;;;19.10;53.50;;;;;;4994721;28;20435;-62
2022/08/12 03:11:49;;;;;;;8.07;5.43;;;19.10;53.80;;;;;;4994810;28;20880;-64
2022/08/12 03:14:17;;;;;;;9.23;5.10;;;19.10;54.50;;;;;;4995167;28;20451;-66
2022/08/12 03:16:49;;;;;;;4.70;4.30;;;19.10;54.40;;;;;;4994781;28;20447;-65
2022/08/12 03:19:20;;;;;;;9.00;4.47;;;19.10;54.10;;;;;;4994620;28;20822;-65
2022/08/12 03:21:51;;;;;;;5.10;4.23;;;19.10;54.40;;;;;;4994532;28;20479;-64
2022/08/12 03:24:19;;;;;;;7.30;4.80;;;19.10;55.10;;;;;;4994550;28;20442;-63
2022/08/12 03:26:50;;;;;;;5.37;4.43;;;19.20;56.00;;;;;;4994055;28;20412;-64
2022/08/12 03:29:16;;;;;;;12.53;5.57;;;19.20;55.60;;;;;;4976438;28;20498;-62
2022/08/12 03:31:42;;;;;;;8.23;4.10;;;19.20;55.90;;;;;;4994383;28;20543;-60
2022/08/12 03:34:13;;;;;;;7.93;4.50;;;19.20;56.00;;;;;;4994260;28;20499;-60
2022/08/12 03:36:41;;;;;;;5.57;3.90;;;19.10;55.90;;;;;;4994004;28;20419;-62
2022/08/12 03:39:35;;;;;;;4.40;4.00;;;19.00;55.40;;;;;;4994318;28;20404;-62
2022/08/12 03:42:08;;;;;;;13.00;4.70;;;18.90;55.90;;;;;;4994396;28;20498;-66
2022/08/12 04:02:01;;;;;;;10.90;4.80;;;18.80;58.00;;;;;;4994118;28;20916;-64
2022/08/12 04:04:33;;;;;;;4.90;4.20;;;18.80;58.90;;;;;;4993887;28;20412;-63
2022/08/12 04:07:07;;;;;;;35.37;7.97;;;18.80;58.30;;;;;;4993811;28;20178;-63
2022/08/12 04:09:36;;;;;;;7.83;4.40;;;18.70;59.30;;;;;;4993796;28;20409;-63
2022/08/12 04:14:47;;;;;;;6.57;4.60;;;18.70;59.70;;;;;;4993797;28;20546;-63
2022/08/12 04:17:14;;;;;;;13.40;5.17;;;18.70;59.80;;;;;;4992556;28;20408;-65
2022/08/12 04:19:41;;;;;;;5.20;4.03;;;18.60;59.80;;;;;;4993593;28;20177;-65
2022/08/12 04:22:06;;;;;;;10.17;5.00;;;18.40;59.90;;;;;;4993676;28;20412;-66
2022/08/12 04:24:34;;;;;;;6.93;4.40;;;18.50;60.80;;;;;;4993547;28;20520;-64
2022/08/12 04:27:01;;;;;;;4.80;4.07;;;18.60;61.50;;;;;;4993643;28;20181;-65
2022/08/12 04:29:27;;;;;;;7.53;4.60;;;18.60;61.40;;;;;;4993549;28;20419;-65
2022/08/12 04:31:54;;;;;;;7.03;4.80;;;18.60;62.60;;;;;;4993482;28;20973;-65
2022/08/12 04:34:22;;;;;;;8.20;4.67;;;18.60;63.40;;;;;;4993719;28;20193;-63
2022/08/12 04:36:48;;;;;;;4.87;4.37;;;18.60;64.60;;;;;;4993247;28;20412;-63
2022/08/12 04:39:15;;;;;;;8.83;4.20;;;18.60;65.80;;;;;;4993087;28;20562;-64
2022/08/12 04:41:41;;;;;;;17.37;5.20;;;18.70;64.60;;;;;;4993513;28;20755;-63
2022/08/12 04:44:07;;;;;;;9.03;5.60;;;18.60;65.80;;;;;;4993232;28;20523;-64
2022/08/12 04:46:33;;;;;;;4.40;4.00;;;18.50;66.80;;;;;;4993176;28;20863;-66
2022/08/12 04:48:59;;;;;;;6.83;4.50;;;18.50;66.50;;;;;;4992928;28;20544;-64
2022/08/12 04:51:25;;;;;;;6.53;4.40;;;18.40;65.90;;;;;;4992890;28;20653;-65
2022/08/12 04:53:51;;;;;;;5.93;3.90;;;18.40;66.70;;;;;;4993128;28;20428;-63
2022/08/12 04:56:17;;;;;;;4.70;4.20;;;18.50;67.20;;;;;;4993311;28;20215;-65
2022/08/12 04:58:43;;;;;;;8.87;4.43;;;18.40;86.10;;;;;;4992886;28;20701;-64
2022/08/12 05:01:09;;;;;;;5.37;4.43;;;18.50;68.70;;;;;;4993348;28;20169;-64
2022/08/12 05:03:36;;;;;;;14.70;4.80;;;18.40;68.30;;;;;;4992941;28;20436;-65
2022/08/12 05:06:03;;;;;;;7.73;4.30;;;18.40;69.10;;;;;;4992781;28;20479;-64
2022/08/12 05:08:30;;;;;;;4.50;4.07;;;19.00;72.50;;;;;;4992555;28;20442;-63
2022/08/12 05:10:56;;;;;;;5.67;4.40;;;20.10;73.70;;;;;;4993218;28;20438;-63
2022/08/12 05:13:35;;;;;;;7.63;4.23;;;20.30;71.60;;;;;;4992751;28;20462;-63
2022/08/12 05:16:02;;;;;;;4.87;4.27;;;20.50;69.90;;;;;;4992761;28;20426;-64
2022/08/12 05:18:28;;;;;;;4.40;4.00;;;20.40;68.50;;;;;;4992299;28;20451;-62
2022/08/12 05:20:53;;;;;;;5.03;4.63;;;20.40;67.20;;;;;;4992355;28;20404;-64
2022/08/12 05:23:21;;;;;;;6.33;4.33;;;20.20;65.70;;;;;;4992590;28;20164;-64
2022/08/12 05:25:49;;;;;;;8.30;5.33;;;20.40;66.70;;;;;;4992630;28;20177;-63
2022/08/12 05:28:17;;;;;;;6.10;4.40;;;20.60;65.30;;;;;;4991745;28;20420;-63
2022/08/12 05:30:44;;;;;;;6.70;4.27;;;20.70;65.80;;;;;;4992581;28;20979;-64
2022/08/12 05:33:11;;;;;;;9.50;4.90;;;20.80;63.70;;;;;;4992229;28;20451;-62
2022/08/12 05:35:41;;;;;;;6.17;3.60;;;20.60;63.40;;;;;;4992398;28;20400;-65
2022/08/12 05:41:19;;;;;;;9.67;4.47;;;21.30;62.30;;;;;;4951619;29;20410;-63
2022/08/12 05:43:56;;;;;;;6.03;4.10;;;21.30;60.00;;;;;;4951562;28;20434;-61
2022/08/12 05:46:24;;;;;;;4.63;4.20;;;21.10;58.80;;;;;;4953587;29;20430;-61
2022/08/12 05:48:53;;;;;;;4.97;4.53;;;20.70;58.20;;;;;;4952484;29;20444;-65
2022/08/12 05:51:25;;;;;;;8.53;5.10;;;20.70;57.60;;;;;;4950903;28;20500;-65
2022/08/12 05:53:52;;;;;;;8.80;4.97;;;20.50;56.80;;;;;;4950947;28;20449;-65
2022/08/12 05:56:33;;;;;;;7.40;4.70;;;20.50;57.40;;;;;;4951070;29;20460;-64
2022/08/12 05:59:00;;;;;;;7.73;4.60;;;20.80;58.10;;;;;;4950823;29;20426;-62
2022/08/12 06:01:27;;;;;;;4.57;4.17;;;20.50;57.10;;;;;;4950907;28;20789;-64
2022/08/12 06:03:53;;;;;;;4.60;4.20;;;20.60;57.40;;;;;;4950660;28;20521;-64
2022/08/12 06:06:20;;;;;;;7.03;4.50;;;20.60;57.30;;;;;;4951035;29;20477;-64
2022/08/12 06:08:52;;;;;;;7.97;4.17;;;20.80;57.20;;;;;;4950568;29;20445;-64
2022/08/12 06:11:19;;;;;;;7.73;4.20;;;21.20;57.60;;;;;;4958800;28;20994;-64
2022/08/12 06:13:45;;;;;;;7.77;5.17;;;20.70;55.60;;;;;;4991678;28;20466;-62
2022/08/12 06:16:13;;;;;;;8.50;4.90;;;20.40;55.00;;;;;;4991826;28;20412;-61
2022/08/12 06:18:40;;;;;;;10.50;4.30;;;20.60;56.40;;;;;;4991616;28;20486;-65
2022/08/12 06:21:14;;;;;;;9.73;4.20;;;20.60;55.80;;;;;;4992083;28;20416;-65
2022/08/12 06:23:42;;;;;;;5.93;4.37;;;20.70;56.60;;;;;;4993334;28;20530;-65
2022/08/12 06:26:10;;;;;;;6.83;4.60;;;20.80;56.60;;;;;;4992757;28;20506;-66
2022/08/12 06:28:37;;;;;;;6.30;4.53;;;20.60;55.00;;;;;;4991422;28;20426;-66
2022/08/12 06:31:05;;;;;;;11.80;4.90;;;20.70;56.30;;;;;;4991933;28;20920;-65
2022/08/12 06:33:31;;;;;;;5.57;4.73;;;21.00;57.80;;;;;;4991316;28;20467;-65
2022/08/12 06:35:58;;;;;;;4.97;4.50;;;21.70;59.40;;;;;;4991642;28;20411;-66
2022/08/12 06:38:26;;;;;;;10.30;5.00;;;21.70;57.40;;;;;;4991394;28;20520;-67
2022/08/12 06:43:42;;;;;;;5.57;4.50;;;21.70;54.90;;;;;;4995857;28;20434;-67
2022/08/12 06:46:09;;;;;;;5.10;4.60;;;21.30;54.50;;;;;;4996080;28;20423;-66
2022/08/12 06:48:36;;;;;;;5.20;4.43;;;21.50;54.80;;;;;;4996113;28;20456;-66
2022/08/12 06:51:03;;;;;;;6.53;4.47;;;21.90;55.50;;;;;;4995743;28;20474;-66
2022/08/12 06:53:31;;;;;;;5.23;4.73;;;21.70;54.20;;;;;;4995116;28;20984;-67
2022/08/12 06:55:59;;;;;;;5.40;4.33;;;21.50;54.50;;;;;;4995245;28;20408;-66
2022/08/12 06:58:29;;;;;;;7.30;5.10;;;22.30;55.90;;;;;;4994924;28;20461;-66
2022/08/12 07:00:59;;;;;;;7.10;4.57;;;22.10;53.40;;;;;;4995065;28;20408;-67
2022/08/12 07:03:28;;;;;;;5.10;4.53;;;21.50;53.00;;;;;;4995887;28;20411;-65
2022/08/12 07:05:59;;;;;;;5.97;4.17;;;21.10;52.70;;;;;;4995657;28;20908;-66
2022/08/12 07:08:32;;;;;;;5.80;4.60;;;21.40;54.40;;;;;;4994667;28;20428;-66
2022/08/12 07:11:00;;;;;;;9.30;4.40;;;22.00;55.80;;;;;;4995045;28;20419;-65
2022/08/12 07:13:37;;;;;;;7.50;4.73;;;22.40;56.60;;;;;;4994845;28;20466;-63
2022/08/12 07:16:06;;;;;;;7.20;4.17;;;22.50;54.40;;;;;;4994835;28;20416;-66
2022/08/12 07:18:32;;;;;;;6.30;4.50;;;22.50;54.00;;;;;;4994708;28;20435;-67
2022/08/12 07:21:02;;;;;;;5.93;4.23;;;22.70;54.70;;;;;;4994921;28;20479;-66
2022/08/12 07:23:32;;;;;;;6.90;4.40;;;22.90;54.80;;;;;;4994596;28;20436;-66
2022/08/12 07:26:02;;;;;;;5.97;4.30;;;22.80;53.40;;;;;;4995061;28;20416;-66
2022/08/12 07:28:30;;;;;;;4.90;4.40;;;22.90;52.90;;;;;;4994425;28;20412;-65
2022/08/12 07:30:57;;;;;;;4.80;4.30;;;22.80;52.30;;;;;;4994704;28;20451;-66
2022/08/12 07:33:30;;;;;;;19.33;5.77;;;22.50;51.50;;;;;;4977146;28;20451;-66
2022/08/12 07:35:58;;;;;;;7.57;3.83;;;23.40;53.40;;;;;;4994949;28;20485;-65
2022/08/12 07:38:30;;;;;;;6.03;4.27;;;23.90;53.40;;;;;;4994197;28;20411;-66
2022/08/12 07:41:20;;;;;;;11.67;4.67;;;23.80;51.40;;;;;;4994652;28;20776;-66
2022/08/12 07:43:47;;;;;;;5.80;4.20;;;23.90;51.40;;;;;;4994408;28;20793;-65
2022/08/12 07:46:19;;;;;;;5.03;4.13;;;24.40;51.30;;;;;;4994789;28;20867;-66
2022/08/12 07:48:57;;;;;;;7.73;4.00;;;24.30;50.30;;;;;;4993873;28;20466;-65
2022/08/12 07:51:24;;;;;;;5.60;3.73;;;24.30;48.80;;;;;;4993925;28;20478;-66
2022/08/12 07:53:50;;;;;;;15.77;5.93;;;23.90;46.60;;;;;;4994296;28;20440;-66
2022/08/12 07:56:17;;;;;;;11.53;4.23;;;23.70;44.60;;;;;;4994056;28;20423;-65
2022/08/12 07:58:43;;;;;;;5.97;4.00;;;23.80;44.60;;;;;;4993853;28;20474;-66
2022/08/12 08:01:14;;;;;;;4.20;3.43;;;24.40;44.50;;;;;;4993989;28;20420;-65
2022/08/12 08:06:30;;;;;;;8.53;4.30;;;23.80;41.40;;;;;;4994383;28;20515;-66
2022/08/12 08:09:02;;;;;;;5.90;4.00;;;23.60;40.50;;;;;;4993892;28;20404;-66
2022/08/12 08:14:12;;;;;;;5.80;3.57;;;23.70;40.60;;;;;;4994115;28;20459;-66
2022/08/12 08:16:40;;;;;;;18.73;5.23;;;23.80;40.30;;;;;;4993819;28;20454;-66
2022/08/12 08:19:14;;;;;;;5.37;3.50;;;23.90;40.60;;;;;;4993656;28;20416;-66
2022/08/12 08:21:41;;;;;;;8.30;3.47;;;24.00;39.90;;;;;;4993931;28;20407;-66
2022/08/12 08:24:16;;;;;;;15.03;3.97;;;24.50;39.90;;;;;;4993707;28;20526;-67
2022/08/12 08:26:42;;;;;;;6.50;3.90;;;24.50;39.70;;;;;;4993877;28;20780;-66
2022/08/12 08:29:11;;;;;;;6.20;3.63;;;24.60;37.50;;;;;;4993329;28;20396;-65
2022/08/12 08:31:42;;;;;;;5.37;3.87;;;24.80;37.30;;;;;;4993522;28;20412;-66
2022/08/12 08:34:11;;;;;;;27.43;5.60;;;24.40;34.60;;;;;;4993560;28;21011;-66
2022/08/12 08:36:38;;;;;;;5.43;3.93;;;24.80;34.80;;;;;;4993490;28;20407;-68
2022/08/12 08:39:08;;;;;;;4.90;3.43;;;24.90;33.50;;;;;;4993116;28;20419;-65
2022/08/12 08:44:20;;;;;;;12.10;3.67;;;24.00;29.10;;;;;;4993799;28;20435;-66
2022/08/12 08:46:48;;;;;;;8.53;4.50;;;24.40;30.20;;;;;;4993277;28;20405;-66
2022/08/12 08:49:14;;;;;;;6.13;3.30;;;24.60;29.40;;;;;;4993229;28;20579;-66
2022/08/12 08:51:41;;;;;;;5.87;3.33;;;24.50;29.00;;;;;;4993229;28;20442;-66
2022/08/12 08:54:10;;;;;;;4.03;3.67;;;24.40;28.20;;;;;;4993554;28;20829;-65
2022/08/12 08:56:48;;;;;;;4.93;3.47;;;24.60;27.60;;;;;;4993178;28;20416;-66
2022/08/12 08:59:15;;;;;;;3.60;3.00;;;24.50;26.80;;;;;;4992694;28;20419;-64
2022/08/12 09:01:42;;;;;;;7.57;4.10;;;24.50;26.00;;;;;;4992947;28;20408;-66
2022/08/12 09:04:09;;;;;;;46.53;7.67;;;24.70;24.80;;;;;;4992235;28;20432;-67
2022/08/12 09:06:38;;;;;;;4.00;3.23;;;25.00;24.70;;;;;;4992753;28;20470;-67
2022/08/12 09:09:04;;;;;;;11.80;3.87;;;25.00;24.20;;;;;;4992581;28;20412;-65
2022/08/12 09:14:14;;;;;;;4.73;3.70;;;25.00;23.70;;;;;;5018374;23;20602;-65
2022/08/12 09:16:40;;;;;;;6.27;3.90;;;24.90;22.80;;;;;;4991381;28;20913;-65
2022/08/12 09:19:07;;;;;;;4.53;3.40;;;25.00;22.30;;;;;;4989710;28;20613;-65
2022/08/12 09:21:33;;;;;;;10.13;3.07;;;24.70;20.30;;;;;;4990400;28;20177;-65
2022/08/12 09:24:00;;;;;;;3.90;3.13;;;24.40;19.40;;;;;;4990229;28;20439;-65
2022/08/12 09:26:29;;;;;;;4.00;3.60;;;24.70;20.20;;;;;;4989803;28;20172;-66
2022/08/12 09:28:58;;;;;;;7.07;3.50;;;25.00;19.90;;;;;;4989827;28;20411;-69
2022/08/12 09:31:24;;;;;;;7.13;3.70;;;24.90;18.80;;;;;;4989767;28;20455;-66
2022/08/12 09:33:50;;;;;;;5.23;3.53;;;25.00;18.50;;;;;;4989973;28;20451;-65
2022/08/12 09:36:17;;;;;;;4.70;3.30;;;25.20;18.90;;;;;;4989921;28;20400;-65
2022/08/12 09:38:43;;;;;;;5.20;3.17;;;25.40;18.60;;;;;;4990089;28;20263;-65
2022/08/12 09:41:09;;;;;;;7.30;3.83;;;25.20;17.00;;;;;;4989849;28;20478;-66
2022/08/12 09:46:19;;;;;;;8.47;3.23;;;25.20;15.50;;;;;;4989717;28;20770;-65
2022/08/12 09:48:45;;;;;;;3.70;3.20;;;25.10;14.20;;;;;;4989817;28;20416;-66
2022/08/12 09:51:12;;;;;;;3.80;3.43;;;24.80;13.70;;;;;;4994581;28;20172;-65
2022/08/12 09:53:39;;;;;;;4.53;2.70;;;24.80;12.00;;;;;;4989294;28;20280;-66
2022/08/12 09:56:10;;;;;;;3.60;3.30;;;25.00;12.70;;;;;;4989981;28;20721;-66
2022/08/12 09:58:36;;;;;;;8.77;3.30;;;25.10;11.90;;;;;;4989409;28;20428;-66
2022/08/12 10:01:05;;;;;;;7.40;2.83;;;25.10;11.70;;;;;;4990177;28;20824;-66
2022/08/12 10:03:35;;;;;;;4.93;3.30;;;25.10;10.90;;;;;;4989370;28;20173;-66
2022/08/12 10:06:05;;;;;;;10.73;5.17;;;25.60;11.40;;;;;;4989356;28;20408;-65
2022/08/12 10:08:32;;;;;;;13.83;3.10;;;25.50;10.80;;;;;;4989037;28;20396;-65
2022/08/12 10:13:45;;;;;;;4.57;2.90;;;25.30;7.90;;;;;;4983147;28;20453;-65
2022/08/12 10:16:22;;;;;;;4.90;3.13;;;25.50;7.70;;;;;;4989613;28;20412;-65
2022/08/12 10:18:55;;;;;;;6.93;3.97;;;25.70;5.40;;;;;;4989598;28;20435;-66
2022/08/12 10:21:26;;;;;;;11.93;2.93;;;25.40;3.30;;;;;;4989366;28;20396;-66
2022/08/12 10:23:53;;;;;;;2.67;2.43;;;25.50;1.90;;;;;;4989545;28;20427;-66
2022/08/12 10:31:52;;;;;;;3.10;2.73;;;25.80;1.00;;;;;;4989910;28;20775;-65
2022/08/12 10:34:21;;;;;;;5.00;2.80;;;25.70;1.00;;;;;;4989555;28;20443;-65
2022/08/12 10:36:48;;;;;;;5.30;2.93;;;25.70;1.00;;;;;;4989265;28;20397;-66
2022/08/12 10:39:16;;;;;;;4.00;2.80;;;25.90;1.00;;;;;;4988918;28;20416;-66
2022/08/12 10:44:27;;;;;;;4.63;2.90;;;25.90;1.00;;;;;;4989069;28;20842;-65
2022/08/12 10:46:54;;;;;;;5.20;2.90;;;25.70;1.00;;;;;;4989467;28;20782;-65
2022/08/12 10:49:27;;;;;;;4.00;2.43;;;25.80;1.00;;;;;;4989162;28;20488;-65
2022/08/12 10:51:56;;;;;;;8.87;2.93;;;25.90;1.00;;;;;;4989109;28;20933;-65
2022/08/12 10:54:25;;;;;;;7.33;3.37;;;25.70;1.00;;;;;;4989308;28;20768;-65
2022/08/12 10:56:51;;;;;;;3.93;2.80;;;25.80;1.00;;;;;;4989121;28;20420;-66
2022/08/12 10:59:18;;;;;;;3.17;2.47;;;25.70;1.00;;;;;;4994399;28;20415;-65
2022/08/12 11:01:44;;;;;;;6.90;3.00;;;25.10;1.00;;;;;;4988855;28;20542;-68
2022/08/12 11:04:12;;;;;;;4.80;2.50;;;25.30;1.00;;;;;;4988976;28;20424;-66
2022/08/12 11:06:46;;;;;;;2.73;2.33;;;25.40;1.00;;;;;;4988612;28;20184;-65
2022/08/12 11:09:19;;;;;;;6.53;2.63;;;25.40;1.00;;;;;;4989091;28;20420;-66
2022/08/12 11:11:47;;;;;;;8.23;2.83;;;25.70;1.00;;;;;;4988854;28;20424;-65
2022/08/12 11:14:16;;;;;;;4.57;2.57;;;25.70;1.00;;;;;;4989078;28;20444;-65
2022/08/12 11:16:43;;;;;;;6.13;3.63;;;25.80;1.00;;;;;;4988979;28;20408;-65
2022/08/12 11:19:09;;;;;;;4.00;2.40;;;25.70;1.00;;;;;;4988847;28;20439;-65
2022/08/12 11:21:36;;;;;;;3.10;2.70;;;25.60;1.00;;;;;;4989386;28;20411;-64
2022/08/12 11:24:02;;;;;;;8.83;2.70;;;25.30;1.00;;;;;;4989294;28;20424;-65
2022/08/12 11:26:28;;;;;;;3.40;2.40;;;25.70;1.00;;;;;;4990507;28;20404;-65
2022/08/12 11:28:54;;;;;;;3.40;2.57;;;25.90;1.00;;;;;;4992273;28;20404;-66
2022/08/12 11:31:19;;;;;;;8.90;2.97;;;26.00;1.00;;;;;;4992320;28;20630;-66
2022/08/12 11:33:48;;;;;;;4.77;3.37;;;25.80;1.00;;;;;;4992045;28;20203;-66
2022/08/12 11:36:14;;;;;;;2.97;2.67;;;25.90;1.00;;;;;;4992638;28;20169;-66
2022/08/12 11:38:40;;;;;;;5.30;2.30;;;26.00;1.00;;;;;;4991606;28;20408;-65
2022/08/12 11:41:06;;;;;;;7.57;3.60;;;26.00;1.00;;;;;;4992832;28;20411;-66
2022/08/12 11:43:32;;;;;;;10.73;3.33;;;26.30;1.00;;;;;;4992080;28;20172;-65
2022/08/12 11:45:58;;;;;;;12.70;3.30;;;26.00;1.00;;;;;;4991823;28;20184;-66
2022/08/12 11:48:24;;;;;;;8.53;3.27;;;25.90;1.00;;;;;;4991543;28;20657;-67
2022/08/12 11:50:50;;;;;;;5.83;3.00;;;26.30;1.00;;;;;;4991589;28;20418;-64
2022/08/12 11:53:16;;;;;;;3.97;2.60;;;26.10;1.00;;;;;;4992243;28;20455;-65
2022/08/12 11:55:42;;;;;;;2.80;2.60;;;26.00;1.00;;;;;;4991566;28;20424;-64
2022/08/12 11:58:08;;;;;;;3.70;2.50;;;25.80;1.00;;;;;;4991713;28;20176;-65
2022/08/12 12:00:33;;;;;;;4.17;3.70;;;25.90;1.00;;;;;;4992057;28;20165;-65
2022/08/12 12:02:59;;;;;;;4.33;2.77;;;25.70;1.00;;;;;;4991855;28;20927;-65
2022/08/12 12:05:25;;;;;;;5.73;3.73;;;26.00;1.00;;;;;;4992445;28;20208;-66
2022/08/12 12:07:51;;;;;;;4.87;3.20;;;26.20;1.00;;;;;;4991435;28;20947;-65
2022/08/12 12:10:20;;;;;;;4.40;2.53;;;26.20;1.00;;;;;;4992032;28;20633;-65
2022/08/12 12:12:46;;;;;;;5.90;2.70;;;26.00;1.00;;;;;;4991821;28;20283;-65
2022/08/12 12:15:12;;;;;;;6.63;3.07;;;25.60;1.00;;;;;;4992017;28;20447;-65
2022/08/12 12:17:40;;;;;;;3.43;2.47;;;25.80;1.00;;;;;;4991948;28;20404;-65
2022/08/12 12:20:09;;;;;;;3.93;2.53;;;26.10;1.00;;;;;;4991413;28;20400;-65
2022/08/12 12:22:36;;;;;;;3.77;2.67;;;25.80;1.00;;;;;;4991374;28;20408;-66
2022/08/12 12:25:03;;;;;;;3.50;2.70;;;25.90;1.00;;;;;;4991087;28;20960;-66
2022/08/12 12:27:42;;;;;;;4.87;2.60;;;26.00;1.00;;;;;;4991836;28;20927;-65
2022/08/12 12:30:08;;;;;;;5.43;3.23;;;26.20;1.00;;;;;;4991436;28;20416;-65
2022/08/12 12:32:34;;;;;;;4.27;2.70;;;26.20;1.00;;;;;;4991313;28;20463;-65
2022/08/12 12:35:03;;;;;;;5.10;2.90;;;26.10;1.00;;;;;;4990886;28;20415;-66
2022/08/12 12:37:29;;;;;;;6.90;2.90;;;26.10;1.00;;;;;;4972804;28;20166;-64
2022/08/12 12:39:57;;;;;;;6.47;2.20;;;26.30;1.00;;;;;;4990423;28;20405;-64
2022/08/12 12:42:22;;;;;;;4.40;2.70;;;26.30;1.00;;;;;;4991442;28;20172;-64
2022/08/12 12:44:48;;;;;;;11.00;2.57;;;26.20;1.00;;;;;;4990700;28;20428;-64
2022/08/12 12:47:15;;;;;;;4.20;2.30;;;26.10;1.00;;;;;;4990892;28;20181;-64
2022/08/12 12:49:41;;;;;;;2.60;2.10;;;26.00;1.00;;;;;;4991356;28;20223;-65
2022/08/12 12:52:07;;;;;;;10.27;2.70;;;25.80;1.00;;;;;;4972946;28;20791;-64
2022/08/12 12:54:33;;;;;;;4.80;2.60;;;25.60;1.00;;;;;;4991069;28;20420;-63
2022/08/12 12:56:59;;;;;;;5.20;3.10;;;25.70;1.00;;;;;;4990304;28;20775;-65
2022/08/12 12:59:27;;;;;;;3.07;2.43;;;25.70;1.00;;;;;;4990729;28;20534;-65
2022/08/12 13:01:53;;;;;;;3.60;2.97;;;25.70;1.00;;;;;;4990675;28;20188;-63
2022/08/12 13:04:19;;;;;;;2.50;2.30;;;25.70;1.00;;;;;;4991301;28;20511;-65
2022/08/12 13:06:50;;;;;;;2.63;2.23;;;25.40;1.00;;;;;;4991270;28;20502;-65
2022/08/12 13:09:17;;;;;;;4.07;2.77;;;25.20;1.00;;;;;;4990674;28;20173;-65
2022/08/12 13:11:43;;;;;;;5.43;2.43;;;25.40;1.00;;;;;;4990867;28;20414;-65
2022/08/12 13:14:12;;;;;;;6.60;2.70;;;25.50;1.00;;;;;;4989977;28;20451;-64
2022/08/12 13:16:39;;;;;;;3.43;2.23;;;25.80;1.00;;;;;;4990780;28;20210;-64
2022/08/12 13:19:06;;;;;;;6.23;2.17;;;25.70;1.00;;;;;;4989941;28;20454;-63
2022/08/12 13:21:31;;;;;;;4.37;2.27;;;25.40;1.00;;;;;;4990546;28;20889;-64
2022/08/12 13:23:57;;;;;;;4.53;2.50;;;25.40;1.00;;;;;;4989990;28;20292;-65
2022/08/12 13:26:23;;;;;;;3.63;2.10;;;25.20;1.00;;;;;;4990360;28;20173;-65
2022/08/12 13:28:52;;;;;;;3.80;2.60;;;25.30;1.00;;;;;;4990067;28;20200;-66
2022/08/12 13:31:20;;;;;;;4.67;2.17;;;25.50;1.00;;;;;;4990381;28;20212;-64
2022/08/12 13:33:50;;;;;;;2.40;2.03;;;25.90;1.00;;;;;;4990132;28;20459;-65
2022/08/12 13:36:19;;;;;;;3.03;2.30;;;26.00;1.00;;;;;;4990102;28;20408;-65
2022/08/12 13:38:49;;;;;;;4.30;1.90;;;25.90;1.00;;;;;;4989931;28;20500;-65
2022/08/12 13:44:06;;;;;;;6.00;2.63;;;26.10;1.00;;;;;;4989926;28;20433;-65
2022/08/12 13:46:34;;;;;;;3.50;2.43;;;26.00;1.00;;;;;;4990043;28;20893;-65
2022/08/12 13:49:03;;;;;;;6.17;2.43;;;26.10;1.00;;;;;;4989078;28;20798;-66
2022/08/12 13:51:29;;;;;;;2.53;2.30;;;26.30;1.00;;;;;;4989991;28;20420;-65
2022/08/12 13:53:54;;;;;;;4.83;1.90;;;26.50;1.00;;;;;;4989677;28;20835;-65
2022/08/12 13:56:22;;;;;;;4.20;1.97;;;26.40;1.00;;;;;;4989506;28;20418;-65
2022/08/12 13:58:49;;;;;;;3.10;2.13;;;26.10;1.00;;;;;;4989493;28;20184;-65
2022/08/12 14:01:16;;;;;;;6.50;2.10;;;26.20;1.00;;;;;;4989462;28;20412;-65
2022/08/12 14:03:43;;;;;;;3.97;2.10;;;26.00;1.00;;;;;;4989350;28;20419;-65
2022/08/12 14:06:11;;;;;;;3.20;1.57;;;26.10;1.00;;;;;;4989206;28;20416;-65
2022/08/12 14:08:36;;;;;;;12.13;1.97;;;26.00;1.00;;;;;;4989494;28;20426;-65
2022/08/12 14:11:02;;;;;;;6.30;2.13;;;26.20;1.00;;;;;;4989211;28;20408;-66
2022/08/12 14:13:30;;;;;;;3.63;2.00;;;26.30;1.00;;;;;;4989431;28;20208;-65
2022/08/12 14:15:58;;;;;;;3.03;1.80;;;26.20;1.00;;;;;;4989427;28;20208;-65
2022/08/12 14:18:25;;;;;;;3.40;2.00;;;26.10;1.00;;;;;;4972225;28;20856;-65
2022/08/12 14:20:57;;;;;;;1.80;1.70;;;26.30;1.00;;;;;;4989517;28;20755;-63
2022/08/12 14:23:24;;;;;;;2.30;1.77;;;26.40;1.00;;;;;;4989559;28;20497;-64
2022/08/12 14:25:54;;;;;;;5.93;1.90;;;26.50;1.00;;;;;;4989613;28;20590;-64
2022/08/12 14:28:22;;;;;;;3.00;2.03;;;26.50;1.00;;;;;;4988799;28;20418;-66
2022/08/12 14:30:53;;;;;;;7.40;2.40;;;26.60;1.00;;;;;;4989396;28;20440;-65
2022/08/12 14:33:51;;;;;;;2.57;1.77;;;26.50;1.00;;;;;;4988970;28;20466;-64
2022/08/12 14:36:24;;;;;;;3.57;2.07;;;26.20;1.00;;;;;;4957106;28;20424;-66
2022/08/12 14:38:53;;;;;;;6.93;2.40;;;26.00;1.00;;;;;;4988997;28;20407;-65
2022/08/12 14:41:21;;;;;;;1.97;1.77;;;26.20;1.00;;;;;;4989110;28;20841;-65
2022/08/12 14:43:49;;;;;;;12.43;2.47;;;26.40;1.00;;;;;;4989482;28;20919;-65
2022/08/12 14:46:20;;;;;;;4.83;3.40;;;26.30;1.00;;;;;;4988837;28;20418;-65
2022/08/12 14:48:49;;;;;;;2.17;1.70;;;26.40;1.00;;;;;;4988930;28;20443;-66
2022/08/12 14:51:17;;;;;;;2.37;1.80;;;26.10;1.00;;;;;;4988907;28;20776;-65
2022/08/12 14:53:44;;;;;;;2.67;1.90;;;26.00;1.00;;;;;;4989255;28;20982;-65